Time;durP1;ratioP1;P1;durP2;ratioP2;P2;SDS_P1;SDS_P2;PMS_P1;PMS_P2;Temp;Humidity;BMP_temperature;BMP_pressure;BME280_temperature;BME280_humidity;BME280_pressure;Samples;Min_cycle;Max_cycle;Signal;HPM_P1;HPM_P2
2023/12/31 00:00:27;;;;;;;14.93;8.02;;;;;;;;;;5143642;27;20049;-70
2023/12/31 00:02:54;;;;;;;14.80;7.78;;;;;;;;;;5142814;27;20062;-70
2023/12/31 00:05:20;;;;;;;18.70;10.15;;;;;;;;;;5141367;27;20049;-70
2023/12/31 00:07:47;;;;;;;19.10;9.55;;;;;;;;;;5141379;27;20051;-69
2023/12/31 00:10:14;;;;;;;19.65;9.48;;;;;;;;;;5141975;27;20047;-69
2023/12/31 00:12:41;;;;;;;18.65;10.15;;;;;;;;;;5141798;27;20046;-69
2023/12/31 00:15:07;;;;;;;20.80;10.73;;;;;;;;;;5142605;27;20092;-69
2023/12/31 00:17:34;;;;;;;17.05;8.30;;;;;;;;;;5140374;27;20086;-69
2023/12/31 00:20:02;;;;;;;17.38;8.55;;;;;;;;;;5142032;27;20051;-69
2023/12/31 00:22:29;;;;;;;17.98;9.27;;;;;;;;;;5141953;27;20276;-70
2023/12/31 00:24:55;;;;;;;20.73;9.90;;;;;;;;;;5141804;27;20043;-70
2023/12/31 00:27:22;;;;;;;17.25;9.27;;;;;;;;;;5141992;27;20099;-69
2023/12/31 00:29:49;;;;;;;22.38;10.05;;;;;;;;;;5142026;27;20039;-70
2023/12/31 00:32:16;;;;;;;18.65;9.52;;;;;;;;;;5141983;27;20049;-69
2023/12/31 00:34:43;;;;;;;17.73;9.82;;;;;;;;;;5141761;27;20092;-70
2023/12/31 00:37:10;;;;;;;17.58;9.15;;;;;;;;;;5141571;27;20076;-71
2023/12/31 00:39:36;;;;;;;19.02;9.13;;;;;;;;;;5142381;27;20052;-69
2023/12/31 00:42:04;;;;;;;14.63;7.65;;;;;;;;;;5141087;27;20043;-69
2023/12/31 00:44:31;;;;;;;20.08;10.05;;;;;;;;;;5141732;27;20162;-71
2023/12/31 00:46:58;;;;;;;17.48;8.77;;;;;;;;;;5138502;27;20118;-70
2023/12/31 00:49:25;;;;;;;15.43;8.95;;;;;;;;;;5141824;27;20609;-70
2023/12/31 00:51:52;;;;;;;22.08;10.15;;;;;;;;;;5142133;27;20038;-70
2023/12/31 00:54:18;;;;;;;22.35;10.25;;;;;;;;;;5142053;27;20050;-69
2023/12/31 00:56:48;;;;;;;16.13;8.73;;;;;;;;;;5142322;27;20054;-69
2023/12/31 00:59:15;;;;;;;23.25;10.52;;;;;;;;;;5142475;27;20111;-69
2023/12/31 01:01:42;;;;;;;17.98;8.38;;;;;;;;;;5142246;27;20490;-70
2023/12/31 01:04:12;;;;;;;16.95;8.32;;;;;;;;;;5140338;27;20471;-69
2023/12/31 01:06:39;;;;;;;15.57;8.98;;;;;;;;;;5140187;27;20086;-69
2023/12/31 01:09:06;;;;;;;25.30;9.70;;;;;;;;;;5141620;27;20114;-69
2023/12/31 01:11:36;;;;;;;21.42;8.35;;;;;;;;;;5141071;27;20061;-69
2023/12/31 01:14:03;;;;;;;17.00;8.32;;;;;;;;;;5140677;27;20077;-69
2023/12/31 01:16:30;;;;;;;16.05;8.48;;;;;;;;;;5141296;27;20043;-70
2023/12/31 01:18:56;;;;;;;20.35;9.43;;;;;;;;;;5141507;27;20042;-70
2023/12/31 01:21:23;;;;;;;19.17;10.15;;;;;;;;;;5141629;27;20096;-70
2023/12/31 01:23:50;;;;;;;28.50;10.27;;;;;;;;;;5141411;27;20049;-70
2023/12/31 01:26:16;;;;;;;23.10;10.40;;;;;;;;;;5141064;27;20051;-71
2023/12/31 01:28:43;;;;;;;15.25;7.75;;;;;;;;;;5140776;27;20328;-72
2023/12/31 01:31:18;;;;;;;15.50;8.25;;;;;;;;;;5140462;27;20331;-70
2023/12/31 01:33:45;;;;;;;18.38;9.90;;;;;;;;;;5122750;28;20111;-69
2023/12/31 01:36:16;;;;;;;26.15;11.55;;;;;;;;;;5140842;28;20043;-69
2023/12/31 01:38:43;;;;;;;20.45;9.32;;;;;;;;;;5141045;28;20320;-68
2023/12/31 01:41:11;;;;;;;21.50;10.32;;;;;;;;;;5141003;28;20114;-69
2023/12/31 01:43:38;;;;;;;23.42;10.75;;;;;;;;;;5141072;28;20035;-69
2023/12/31 01:46:08;;;;;;;23.15;10.07;;;;;;;;;;5141083;28;20110;-69
2023/12/31 01:48:35;;;;;;;20.02;9.75;;;;;;;;;;5122574;28;20043;-70
2023/12/31 01:51:03;;;;;;;18.33;9.80;;;;;;;;;;5141041;28;20043;-69
2023/12/31 01:53:31;;;;;;;22.70;10.68;;;;;;;;;;5141453;28;20049;-69
2023/12/31 01:55:58;;;;;;;20.20;9.93;;;;;;;;;;5141576;28;20086;-69
2023/12/31 01:58:25;;;;;;;24.40;10.50;;;;;;;;;;5141591;28;20047;-69
2023/12/31 02:00:52;;;;;;;21.40;9.30;;;;;;;;;;5140993;28;20039;-70
2023/12/31 02:03:19;;;;;;;20.88;9.30;;;;;;;;;;5140601;27;20053;-70
2023/12/31 02:05:46;;;;;;;21.85;10.75;;;;;;;;;;5140473;28;20451;-69
2023/12/31 02:08:13;;;;;;;23.83;10.05;;;;;;;;;;5140125;28;20047;-69
2023/12/31 02:10:40;;;;;;;23.50;11.32;;;;;;;;;;5140417;28;20043;-69
2023/12/31 02:13:07;;;;;;;22.95;9.93;;;;;;;;;;5140595;28;20066;-69
2023/12/31 02:15:34;;;;;;;20.05;10.07;;;;;;;;;;5140191;28;20523;-70
2023/12/31 02:18:02;;;;;;;22.85;11.43;;;;;;;;;;5141090;28;20096;-70
2023/12/31 02:20:30;;;;;;;23.58;11.23;;;;;;;;;;5141427;28;20116;-69
2023/12/31 02:22:57;;;;;;;22.58;11.25;;;;;;;;;;5141202;28;20050;-69
2023/12/31 02:25:27;;;;;;;20.65;9.73;;;;;;;;;;5139279;28;20389;-69
2023/12/31 02:27:54;;;;;;;22.63;11.00;;;;;;;;;;5140623;28;20092;-70
2023/12/31 02:30:22;;;;;;;22.65;10.43;;;;;;;;;;5140380;27;20057;-69
2023/12/31 02:32:49;;;;;;;22.08;10.27;;;;;;;;;;5122615;28;20039;-69
2023/12/31 02:35:16;;;;;;;21.38;10.60;;;;;;;;;;5140629;28;20050;-73
2023/12/31 02:37:42;;;;;;;25.77;11.38;;;;;;;;;;5140164;28;20426;-73
2023/12/31 02:40:10;;;;;;;24.50;10.80;;;;;;;;;;5141996;27;20042;-70
2023/12/31 02:42:36;;;;;;;18.13;9.93;;;;;;;;;;5143807;27;20196;-71
2023/12/31 02:45:03;;;;;;;17.85;8.70;;;;;;;;;;5144312;27;20084;-71
2023/12/31 02:47:30;;;;;;;18.83;8.27;;;;;;;;;;5144334;27;20491;-71
2023/12/31 02:49:57;;;;;;;17.98;9.05;;;;;;;;;;5143916;27;20267;-70
2023/12/31 02:52:23;;;;;;;20.20;10.57;;;;;;;;;;5143933;27;20047;-70
2023/12/31 02:54:50;;;;;;;16.67;8.80;;;;;;;;;;5143883;27;20300;-69
2023/12/31 02:57:18;;;;;;;14.15;8.35;;;;;;;;;;5144111;27;20049;-70
2023/12/31 02:59:45;;;;;;;10.77;6.35;;;;;;;;;;5144044;27;20043;-70
2023/12/31 03:02:11;;;;;;;15.55;8.50;;;;;;;;;;5144008;27;20115;-72
2023/12/31 03:04:40;;;;;;;17.92;9.60;;;;;;;;;;5143651;27;20235;-69
2023/12/31 03:07:07;;;;;;;17.95;9.98;;;;;;;;;;5144652;27;20065;-69
2023/12/31 03:09:33;;;;;;;15.65;8.95;;;;;;;;;;5144182;27;20043;-69
2023/12/31 03:12:00;;;;;;;19.80;9.55;;;;;;;;;;5142931;27;20035;-69
2023/12/31 03:14:27;;;;;;;20.60;9.93;;;;;;;;;;5143552;27;20086;-70
2023/12/31 03:16:53;;;;;;;17.30;8.75;;;;;;;;;;5143866;27;20113;-69
2023/12/31 03:19:20;;;;;;;17.27;9.38;;;;;;;;;;5144201;27;20327;-69
2023/12/31 03:21:48;;;;;;;16.50;8.82;;;;;;;;;;5144091;27;20370;-71
2023/12/31 03:24:15;;;;;;;17.30;8.90;;;;;;;;;;5143422;27;20043;-70
2023/12/31 03:26:42;;;;;;;21.63;10.55;;;;;;;;;;5143097;27;20039;-70
2023/12/31 03:29:08;;;;;;;17.80;8.90;;;;;;;;;;5143170;27;20336;-70
2023/12/31 03:31:35;;;;;;;16.10;8.88;;;;;;;;;;5142846;27;20054;-70
2023/12/31 03:34:06;;;;;;;14.77;7.80;;;;;;;;;;5141836;27;20045;-72
2023/12/31 03:36:36;;;;;;;16.50;8.45;;;;;;;;;;5142304;27;20070;-70
2023/12/31 03:39:02;;;;;;;15.93;8.40;;;;;;;;;;5141254;27;20039;-72
2023/12/31 03:41:29;;;;;;;14.27;8.02;;;;;;;;;;5142187;27;20279;-70
2023/12/31 03:43:56;;;;;;;12.40;6.88;;;;;;;;;;5141958;27;20115;-69
2023/12/31 03:46:23;;;;;;;18.67;9.85;;;;;;;;;;5142219;27;20050;-70
2023/12/31 03:48:49;;;;;;;14.80;7.55;;;;;;;;;;5142673;27;20047;-70
2023/12/31 03:51:16;;;;;;;18.52;8.93;;;;;;;;;;5142774;27;20043;-70
2023/12/31 03:53:43;;;;;;;17.52;9.05;;;;;;;;;;5142560;27;20043;-69
2023/12/31 03:56:10;;;;;;;16.58;8.32;;;;;;;;;;5143359;27;20111;-72
2023/12/31 03:58:37;;;;;;;12.60;7.20;;;;;;;;;;5142558;27;20391;-69
2023/12/31 04:01:04;;;;;;;19.33;8.98;;;;;;;;;;5142788;27;20306;-68
2023/12/31 04:03:31;;;;;;;16.25;9.10;;;;;;;;;;5142399;27;20297;-69
2023/12/31 04:05:58;;;;;;;17.77;9.43;;;;;;;;;;5142830;27;20157;-69
2023/12/31 04:08:25;;;;;;;20.15;9.80;;;;;;;;;;5143354;27;20055;-70
2023/12/31 04:10:51;;;;;;;17.13;8.70;;;;;;;;;;5143095;27;20047;-70
2023/12/31 04:13:18;;;;;;;15.40;8.52;;;;;;;;;;5143125;27;20055;-70
2023/12/31 04:15:45;;;;;;;16.75;8.57;;;;;;;;;;5143150;27;20088;-72
2023/12/31 04:18:12;;;;;;;14.85;8.57;;;;;;;;;;5142780;27;20059;-69
2023/12/31 04:20:38;;;;;;;17.75;9.00;;;;;;;;;;5142230;27;20050;-71
2023/12/31 04:23:05;;;;;;;18.05;9.52;;;;;;;;;;5141906;27;20069;-69
2023/12/31 04:25:32;;;;;;;10.65;6.38;;;;;;;;;;5140768;27;20055;-70
2023/12/31 04:27:59;;;;;;;12.57;6.72;;;;;;;;;;5141492;27;20114;-69
2023/12/31 04:30:26;;;;;;;14.93;7.82;;;;;;;;;;5141528;27;20043;-69
2023/12/31 04:32:54;;;;;;;18.30;7.95;;;;;;;;;;5141364;27;20043;-71
2023/12/31 04:35:20;;;;;;;15.23;8.23;;;;;;;;;;5139390;27;20051;-69
2023/12/31 04:37:47;;;;;;;11.90;6.85;;;;;;;;;;5141687;27;20280;-69
2023/12/31 04:40:14;;;;;;;13.55;7.35;;;;;;;;;;5141888;27;20047;-70
2023/12/31 04:42:41;;;;;;;15.20;8.32;;;;;;;;;;5141094;27;20277;-70
2023/12/31 04:45:09;;;;;;;14.85;8.25;;;;;;;;;;5140238;27;20325;-73
2023/12/31 04:47:36;;;;;;;13.63;7.72;;;;;;;;;;5141750;27;20047;-70
2023/12/31 04:50:04;;;;;;;11.68;6.10;;;;;;;;;;5141751;27;20047;-69
2023/12/31 04:52:31;;;;;;;13.38;6.82;;;;;;;;;;5141790;27;20049;-69
2023/12/31 04:54:58;;;;;;;11.65;6.43;;;;;;;;;;5141371;27;20054;-71
2023/12/31 04:57:25;;;;;;;12.40;6.15;;;;;;;;;;5141559;27;20079;-69
2023/12/31 04:59:51;;;;;;;14.85;6.68;;;;;;;;;;5141483;27;20110;-70
2023/12/31 05:02:18;;;;;;;11.88;5.97;;;;;;;;;;5140747;27;20258;-71
2023/12/31 05:04:45;;;;;;;10.70;6.32;;;;;;;;;;5140906;27;20059;-70
2023/12/31 05:07:11;;;;;;;9.25;5.82;;;;;;;;;;5141603;27;20043;-73
2023/12/31 05:09:38;;;;;;;10.25;5.85;;;;;;;;;;5142082;27;20422;-74
2023/12/31 05:12:05;;;;;;;12.73;7.38;;;;;;;;;;5142264;27;20043;-74
2023/12/31 05:14:32;;;;;;;11.25;6.18;;;;;;;;;;5142134;27;20077;-73
2023/12/31 05:16:59;;;;;;;13.98;7.32;;;;;;;;;;5141866;27;20275;-70
2023/12/31 05:19:25;;;;;;;12.20;6.72;;;;;;;;;;5141917;27;20043;-69
2023/12/31 05:21:52;;;;;;;15.27;8.20;;;;;;;;;;5141137;27;20043;-69
2023/12/31 05:24:19;;;;;;;12.23;7.15;;;;;;;;;;5140512;27;20087;-69
2023/12/31 05:26:45;;;;;;;12.35;6.68;;;;;;;;;;5140965;27;20043;-70
2023/12/31 05:29:12;;;;;;;11.77;6.20;;;;;;;;;;5140824;27;20050;-70
2023/12/31 05:31:39;;;;;;;10.38;6.05;;;;;;;;;;5140198;27;20043;-70
2023/12/31 05:34:05;;;;;;;12.00;6.72;;;;;;;;;;5141151;27;20108;-71
2023/12/31 05:36:32;;;;;;;13.90;8.10;;;;;;;;;;5140482;28;20039;-71
2023/12/31 05:38:59;;;;;;;14.55;8.27;;;;;;;;;;5140486;28;20335;-72
2023/12/31 05:41:25;;;;;;;11.93;6.47;;;;;;;;;;5139539;28;20325;-69
2023/12/31 05:43:52;;;;;;;10.23;6.40;;;;;;;;;;5140268;28;20050;-74
2023/12/31 05:46:20;;;;;;;12.85;6.05;;;;;;;;;;5140637;28;20055;-70
2023/12/31 05:48:47;;;;;;;17.55;9.27;;;;;;;;;;5140941;28;20097;-70
2023/12/31 05:51:14;;;;;;;13.55;7.00;;;;;;;;;;5141332;28;20039;-70
2023/12/31 05:53:40;;;;;;;15.27;7.60;;;;;;;;;;5140537;28;20110;-72
2023/12/31 05:56:07;;;;;;;15.20;7.63;;;;;;;;;;5140905;28;20038;-70
2023/12/31 05:58:34;;;;;;;12.27;6.28;;;;;;;;;;5140607;28;20047;-70
2023/12/31 06:01:02;;;;;;;14.27;7.90;;;;;;;;;;5140890;28;20454;-70
2023/12/31 06:03:29;;;;;;;13.00;7.15;;;;;;;;;;5140718;28;20084;-70
2023/12/31 06:05:56;;;;;;;13.27;6.88;;;;;;;;;;5140286;28;20043;-70
2023/12/31 06:08:23;;;;;;;12.93;7.20;;;;;;;;;;5140430;28;20047;-71
2023/12/31 06:10:49;;;;;;;16.92;7.57;;;;;;;;;;5140890;28;20054;-70
2023/12/31 06:13:16;;;;;;;14.48;8.05;;;;;;;;;;5141263;28;20316;-69
2023/12/31 06:15:43;;;;;;;15.88;8.38;;;;;;;;;;5143150;27;20042;-70
2023/12/31 06:18:12;;;;;;;16.15;8.18;;;;;;;;;;5145284;27;20066;-70
2023/12/31 06:20:39;;;;;;;13.73;7.15;;;;;;;;;;5145312;27;20043;-69
2023/12/31 06:23:06;;;;;;;14.98;6.80;;;;;;;;;;5145424;27;20074;-69
2023/12/31 06:25:32;;;;;;;15.25;7.57;;;;;;;;;;5144942;27;20408;-70
2023/12/31 06:27:59;;;;;;;12.80;6.10;;;;;;;;;;5145620;27;20047;-70
2023/12/31 06:30:26;;;;;;;13.73;7.38;;;;;;;;;;5145658;27;20361;-70
2023/12/31 06:32:52;;;;;;;14.32;7.30;;;;;;;;;;5144498;27;20046;-70
2023/12/31 06:35:19;;;;;;;15.00;7.10;;;;;;;;;;5143587;27;20096;-71
2023/12/31 06:37:46;;;;;;;12.27;6.85;;;;;;;;;;5143110;27;20051;-71
2023/12/31 06:40:14;;;;;;;11.02;5.70;;;;;;;;;;5143855;27;20102;-70
2023/12/31 06:42:40;;;;;;;16.33;7.25;;;;;;;;;;5143921;27;20449;-70
2023/12/31 06:45:08;;;;;;;11.75;5.90;;;;;;;;;;5143585;27;20127;-73
2023/12/31 06:47:35;;;;;;;15.43;7.38;;;;;;;;;;5143265;27;20114;-70
2023/12/31 06:50:02;;;;;;;10.48;6.05;;;;;;;;;;5143961;27;20054;-69
2023/12/31 06:52:29;;;;;;;10.27;6.15;;;;;;;;;;5143754;27;20051;-70
2023/12/31 06:54:55;;;;;;;8.32;4.93;;;;;;;;;;5143876;27;20043;-70
2023/12/31 06:57:22;;;;;;;8.18;4.80;;;;;;;;;;5143497;27;20054;-71
2023/12/31 06:59:49;;;;;;;9.88;6.40;;;;;;;;;;5143594;27;20043;-71
2023/12/31 07:02:15;;;;;;;14.18;6.57;;;;;;;;;;5143098;27;20223;-70
2023/12/31 07:04:42;;;;;;;10.85;6.00;;;;;;;;;;5143430;27;20043;-71
2023/12/31 07:07:09;;;;;;;9.68;5.45;;;;;;;;;;5143110;27;20082;-69
2023/12/31 07:09:36;;;;;;;10.10;5.25;;;;;;;;;;5143785;27;20081;-71
2023/12/31 07:12:03;;;;;;;10.23;5.80;;;;;;;;;;5143866;27;20047;-69
2023/12/31 07:14:29;;;;;;;10.10;5.78;;;;;;;;;;5142615;27;20051;-69
2023/12/31 07:16:56;;;;;;;11.95;6.47;;;;;;;;;;5143019;27;20054;-70
2023/12/31 07:19:23;;;;;;;9.63;5.68;;;;;;;;;;5143521;27;20049;-72
2023/12/31 07:21:49;;;;;;;12.70;6.35;;;;;;;;;;5143487;27;20429;-71
2023/12/31 07:24:16;;;;;;;10.30;6.00;;;;;;;;;;5144016;27;20125;-70
2023/12/31 07:26:43;;;;;;;12.95;6.25;;;;;;;;;;5143330;27;20362;-69
2023/12/31 07:29:10;;;;;;;12.63;7.20;;;;;;;;;;5143971;27;20051;-69
2023/12/31 07:31:37;;;;;;;10.82;6.25;;;;;;;;;;5143491;27;20039;-72
2023/12/31 07:34:06;;;;;;;11.73;6.63;;;;;;;;;;5142181;27;20043;-70
2023/12/31 07:36:33;;;;;;;12.38;6.10;;;;;;;;;;5142084;27;20042;-71
2023/12/31 07:39:00;;;;;;;14.10;7.50;;;;;;;;;;5125581;27;20050;-72
2023/12/31 07:41:27;;;;;;;13.25;6.80;;;;;;;;;;5143633;27;20273;-70
2023/12/31 07:43:54;;;;;;;14.52;7.03;;;;;;;;;;5142828;27;20078;-69
2023/12/31 07:46:21;;;;;;;10.52;6.07;;;;;;;;;;5142317;27;20125;-69
2023/12/31 07:48:48;;;;;;;11.30;6.25;;;;;;;;;;5143219;27;20074;-70
2023/12/31 07:51:15;;;;;;;8.27;5.50;;;;;;;;;;5142860;27;20045;-70
2023/12/31 07:53:41;;;;;;;11.40;6.47;;;;;;;;;;5142952;27;20486;-70
2023/12/31 07:56:08;;;;;;;10.45;6.18;;;;;;;;;;5142613;27;20054;-69
2023/12/31 07:58:35;;;;;;;11.32;6.25;;;;;;;;;;5124542;27;20319;-69
2023/12/31 08:01:02;;;;;;;10.52;5.95;;;;;;;;;;5142799;27;20050;-71
2023/12/31 08:03:29;;;;;;;10.73;5.55;;;;;;;;;;5142455;27;20114;-69
2023/12/31 08:05:59;;;;;;;7.80;4.50;;;;;;;;;;5142821;27;20075;-69
2023/12/31 08:08:26;;;;;;;10.00;5.47;;;;;;;;;;5142194;27;20055;-69
2023/12/31 08:10:53;;;;;;;11.88;6.43;;;;;;;;;;5142368;27;20298;-69
2023/12/31 08:13:20;;;;;;;9.95;6.00;;;;;;;;;;5140813;27;20117;-68
2023/12/31 08:15:47;;;;;;;14.85;7.90;;;;;;;;;;5141696;27;20039;-69
2023/12/31 08:18:14;;;;;;;11.48;6.55;;;;;;;;;;5142042;27;20046;-70
2023/12/31 08:20:41;;;;;;;12.15;7.13;;;;;;;;;;5141346;27;20303;-68
2023/12/31 08:23:07;;;;;;;10.48;6.35;;;;;;;;;;5140159;27;20058;-68
2023/12/31 08:25:34;;;;;;;9.27;5.57;;;;;;;;;;5131949;27;20051;-68
2023/12/31 08:28:01;;;;;;;8.98;4.93;;;;;;;;;;5128663;27;20325;-71
2023/12/31 08:30:28;;;;;;;10.43;5.20;;;;;;;;;;5142910;27;20047;-69
2023/12/31 08:32:54;;;;;;;11.07;5.40;;;;;;;;;;5131781;27;20446;-70
2023/12/31 08:35:26;;;;;;;11.13;4.78;;;;;;;;;;5118904;28;20050;-68
2023/12/31 08:37:53;;;;;;;6.13;3.30;;;;;;;;;;5120305;28;20050;-72
2023/12/31 08:40:19;;;;;;;6.15;3.22;;;;;;;;;;5120522;28;20044;-71
2023/12/31 08:42:46;;;;;;;5.13;2.72;;;;;;;;;;5120063;28;20200;-70
2023/12/31 08:45:14;;;;;;;6.40;2.85;;;;;;;;;;5125909;27;20042;-74
2023/12/31 08:47:41;;;;;;;4.13;2.47;;;;;;;;;;5140533;27;20265;-66
2023/12/31 08:50:09;;;;;;;5.43;1.95;;;;;;;;;;5141538;27;20130;-71
2023/12/31 08:52:39;;;;;;;4.57;2.30;;;;;;;;;;5142190;27;20042;-69
2023/12/31 08:55:07;;;;;;;4.77;1.87;;;;;;;;;;5141821;27;20050;-73
2023/12/31 08:57:35;;;;;;;2.83;1.60;;;;;;;;;;5123294;27;20050;-70
2023/12/31 09:00:03;;;;;;;4.53;1.88;;;;;;;;;;5141621;27;20049;-72
2023/12/31 09:02:29;;;;;;;4.55;2.25;;;;;;;;;;5142331;27;20060;-74
2023/12/31 09:04:56;;;;;;;6.75;2.53;;;;;;;;;;5142154;27;20328;-72
2023/12/31 09:07:23;;;;;;;6.20;2.55;;;;;;;;;;5142379;27;20043;-76
2023/12/31 09:09:50;;;;;;;6.18;2.20;;;;;;;;;;5142122;27;20055;-75
2023/12/31 09:12:17;;;;;;;6.05;2.65;;;;;;;;;;5142144;27;20095;-75
2023/12/31 09:14:43;;;;;;;5.50;2.40;;;;;;;;;;5141530;27;20053;-74
2023/12/31 09:17:11;;;;;;;4.65;2.50;;;;;;;;;;5141776;27;20109;-70
2023/12/31 09:19:40;;;;;;;5.13;2.72;;;;;;;;;;5140830;27;20054;-69
2023/12/31 09:22:07;;;;;;;5.07;2.58;;;;;;;;;;5140727;27;20362;-70
2023/12/31 09:24:35;;;;;;;5.80;2.53;;;;;;;;;;5140553;27;20270;-70
2023/12/31 09:27:03;;;;;;;6.25;2.70;;;;;;;;;;5141206;27;20039;-70
2023/12/31 09:29:30;;;;;;;4.35;2.17;;;;;;;;;;5141964;27;20123;-70
2023/12/31 09:31:56;;;;;;;4.78;2.42;;;;;;;;;;5142351;27;20051;-72
2023/12/31 09:34:23;;;;;;;4.70;2.53;;;;;;;;;;5141980;27;20350;-70
2023/12/31 09:36:51;;;;;;;5.13;2.35;;;;;;;;;;5142515;28;20106;-70
2023/12/31 09:39:18;;;;;;;4.80;2.53;;;;;;;;;;5141577;28;20073;-70
2023/12/31 09:41:48;;;;;;;6.75;2.63;;;;;;;;;;5140900;28;20050;-70
2023/12/31 09:44:17;;;;;;;7.50;2.97;;;;;;;;;;5140569;28;20110;-69
2023/12/31 09:46:57;;;;;;;7.85;2.58;;;;;;;;;;5140933;28;20078;-70
2023/12/31 09:49:36;;;;;;;5.10;2.25;;;;;;;;;;5142344;27;20051;-71
2023/12/31 09:52:07;;;;;;;5.53;3.00;;;;;;;;;;5144804;27;20102;-73
2023/12/31 09:54:38;;;;;;;4.38;1.90;;;;;;;;;;5144500;27;20043;-70
2023/12/31 09:57:06;;;;;;;3.30;1.80;;;;;;;;;;5144857;27;20047;-72
2023/12/31 09:59:33;;;;;;;3.03;1.70;;;;;;;;;;5144793;27;20047;-70
2023/12/31 10:02:03;;;;;;;4.07;1.25;;;;;;;;;;5145288;27;20054;-69
2023/12/31 10:04:30;;;;;;;4.70;1.40;;;;;;;;;;5145459;27;20111;-70
2023/12/31 10:06:58;;;;;;;6.22;1.67;;;;;;;;;;5144336;27;20043;-75
2023/12/31 10:09:30;;;;;;;4.72;1.55;;;;;;;;;;5126999;27;20043;-73
2023/12/31 10:12:00;;;;;;;7.10;1.88;;;;;;;;;;5144952;27;20039;-72
2023/12/31 10:14:28;;;;;;;3.83;1.02;;;;;;;;;;5140233;27;20047;-71
2023/12/31 10:16:55;;;;;;;3.58;1.13;;;;;;;;;;5134048;27;20088;-73
2023/12/31 10:19:23;;;;;;;3.00;1.10;;;;;;;;;;5134310;27;20074;-71
2023/12/31 10:21:50;;;;;;;3.80;1.02;;;;;;;;;;5115677;27;20057;-74
2023/12/31 10:24:26;;;;;;;8.45;1.27;;;;;;;;;;5133374;27;20495;-72
2023/12/31 10:26:57;;;;;;;4.63;1.30;;;;;;;;;;5140936;27;20074;-70
2023/12/31 10:29:24;;;;;;;2.15;1.15;;;;;;;;;;5142376;27;20050;-69
2023/12/31 10:31:52;;;;;;;2.65;1.30;;;;;;;;;;5135701;27;20445;-70
2023/12/31 10:34:19;;;;;;;1.90;1.02;;;;;;;;;;5140539;27;20522;-71
2023/12/31 10:36:47;;;;;;;0.80;0.50;;;;;;;;;;5135489;27;20138;-76
2023/12/31 10:39:27;;;;;;;2.85;0.60;;;;;;;;;;5141102;27;20043;-72
2023/12/31 10:41:59;;;;;;;3.60;1.10;;;;;;;;;;5141822;27;20047;-72
2023/12/31 10:44:27;;;;;;;1.23;0.63;;;;;;;;;;5134793;27;20070;-74
2023/12/31 10:47:04;;;;;;;2.63;0.75;;;;;;;;;;5135127;27;20049;-73
2023/12/31 10:49:35;;;;;;;2.22;0.63;;;;;;;;;;5133794;27;20051;-75
2023/12/31 10:52:05;;;;;;;2.15;0.70;;;;;;;;;;5133708;27;20100;-76
2023/12/31 10:54:35;;;;;;;2.05;0.75;;;;;;;;;;5133297;27;20054;-75
2023/12/31 10:57:03;;;;;;;4.25;0.77;;;;;;;;;;5133272;27;20642;-71
2023/12/31 10:59:31;;;;;;;3.22;0.90;;;;;;;;;;5133143;27;20051;-72
2023/12/31 11:01:58;;;;;;;3.55;0.90;;;;;;;;;;5134240;27;20117;-71
2023/12/31 11:04:28;;;;;;;2.67;0.85;;;;;;;;;;5133138;27;20043;-71
2023/12/31 11:06:55;;;;;;;1.83;0.60;;;;;;;;;;5133461;27;20043;-72
2023/12/31 11:09:22;;;;;;;1.38;0.63;;;;;;;;;;5132670;27;20434;-71
2023/12/31 11:11:50;;;;;;;3.25;0.60;;;;;;;;;;5132982;27;20047;-75
2023/12/31 11:14:24;;;;;;;0.93;0.40;;;;;;;;;;5132371;27;20487;-71
2023/12/31 11:17:18;;;;;;;3.50;0.75;;;;;;;;;;5132854;27;20053;-74
2023/12/31 11:20:23;;;;;;;2.35;0.60;;;;;;;;;;5133808;27;20403;-71
2023/12/31 11:23:04;;;;;;;;;;;;;;;;;;5133216;27;20494;-70
2023/12/31 11:25:31;;;;;;;2.65;0.57;;;;;;;;;;5132498;27;20010;-72
2023/12/31 11:27:58;;;;;;;2.22;0.63;;;;;;;;;;5132488;27;20079;-74
2023/12/31 11:30:43;;;;;;;0.93;0.50;;;;;;;;;;5132474;27;20422;-72
2023/12/31 11:33:10;;;;;;;2.67;0.60;;;;;;;;;;5132601;27;20092;-74
2023/12/31 11:35:44;;;;;;;1.35;0.55;;;;;;;;;;5132743;27;20047;-75
2023/12/31 11:38:11;;;;;;;1.85;0.60;;;;;;;;;;5132589;27;20047;-74
2023/12/31 11:40:40;;;;;;;2.42;0.80;;;;;;;;;;5132233;27;20044;-71
2023/12/31 11:43:17;;;;;;;2.47;0.60;;;;;;;;;;5132435;27;20047;-72
2023/12/31 11:45:48;;;;;;;3.83;0.85;;;;;;;;;;5132121;27;20122;-73
2023/12/31 11:48:25;;;;;;;4.20;0.85;;;;;;;;;;5131872;27;20055;-72
2023/12/31 11:50:56;;;;;;;4.95;1.00;;;;;;;;;;5113548;27;20242;-73
2023/12/31 11:53:27;;;;;;;1.52;0.70;;;;;;;;;;5132979;27;20088;-71
2023/12/31 11:55:57;;;;;;;3.72;0.80;;;;;;;;;;5136297;27;20042;-73
2023/12/31 11:58:30;;;;;;;1.88;1.05;;;;;;;;;;5122827;28;20196;-75
2023/12/31 12:00:56;;;;;;;2.33;1.38;;;;;;;;;;5126155;27;20046;-70
2023/12/31 12:03:23;;;;;;;2.25;0.80;;;;;;;;;;5141073;27;20106;-71
2023/12/31 12:05:50;;;;;;;2.72;1.05;;;;;;;;;;5140669;27;20227;-81
2023/12/31 12:08:19;;;;;;;4.45;1.10;;;;;;;;;;5139854;27;20046;-72
2023/12/31 12:10:45;;;;;;;3.05;0.95;;;;;;;;;;5123218;27;20049;-71
2023/12/31 12:13:13;;;;;;;2.17;0.90;;;;;;;;;;5138098;27;20046;-72
2023/12/31 12:15:41;;;;;;;3.60;1.20;;;;;;;;;;5134472;27;20099;-71
2023/12/31 12:18:21;;;;;;;1.42;0.65;;;;;;;;;;5138739;27;20467;-75
2023/12/31 12:20:48;;;;;;;2.03;0.82;;;;;;;;;;5117607;27;20055;-73
2023/12/31 12:23:19;;;;;;;2.53;0.82;;;;;;;;;;5141163;27;20485;-74
2023/12/31 12:25:47;;;;;;;3.67;1.08;;;;;;;;;;5141958;27;20054;-73
2023/12/31 12:28:15;;;;;;;3.35;0.80;;;;;;;;;;5135526;27;20134;-76
2023/12/31 12:30:42;;;;;;;4.40;0.95;;;;;;;;;;5113145;27;20514;-71
2023/12/31 12:33:11;;;;;;;5.70;1.10;;;;;;;;;;5113366;27;20066;-73
2023/12/31 12:35:44;;;;;;;2.25;0.90;;;;;;;;;;5133771;27;20065;-71
2023/12/31 12:38:12;;;;;;;3.92;0.70;;;;;;;;;;5132557;27;20531;-72
2023/12/31 12:40:41;;;;;;;1.95;0.60;;;;;;;;;;5134135;27;20050;-70
2023/12/31 12:43:12;;;;;;;3.85;0.85;;;;;;;;;;5136009;27;20039;-69
2023/12/31 12:45:39;;;;;;;3.40;1.08;;;;;;;;;;5133925;27;20348;-70
2023/12/31 12:48:06;;;;;;;6.30;1.00;;;;;;;;;;5137927;27;20043;-78
2023/12/31 12:50:33;;;;;;;1.60;0.68;;;;;;;;;;5134067;27;20418;-73
2023/12/31 12:53:00;;;;;;;1.27;0.60;;;;;;;;;;5135029;27;20039;-75
2023/12/31 12:55:27;;;;;;;4.80;1.25;;;;;;;;;;5137499;27;20232;-78
2023/12/31 12:57:54;;;;;;;4.03;0.90;;;;;;;;;;5131297;27;20499;-77
2023/12/31 13:00:21;;;;;;;2.05;0.80;;;;;;;;;;5115247;27;20591;-76
2023/12/31 13:02:48;;;;;;;3.15;0.85;;;;;;;;;;5130869;27;20047;-75
2023/12/31 13:05:15;;;;;;;2.70;0.80;;;;;;;;;;5131034;27;20051;-74
2023/12/31 13:07:42;;;;;;;1.92;0.73;;;;;;;;;;5130722;27;20051;-74
2023/12/31 13:10:09;;;;;;;3.47;0.98;;;;;;;;;;5130521;27;20043;-76
2023/12/31 13:12:36;;;;;;;3.40;0.90;;;;;;;;;;5134877;27;20691;-73
2023/12/31 13:15:03;;;;;;;1.45;0.57;;;;;;;;;;5130976;27;20043;-72
2023/12/31 13:17:30;;;;;;;2.25;0.90;;;;;;;;;;5138614;27;20043;-71
2023/12/31 13:19:57;;;;;;;4.38;0.93;;;;;;;;;;5137480;27;20049;-71
2023/12/31 13:22:24;;;;;;;1.88;0.80;;;;;;;;;;5133424;27;20398;-73
2023/12/31 13:24:51;;;;;;;2.05;0.80;;;;;;;;;;5131428;27;20059;-73
2023/12/31 13:27:20;;;;;;;1.55;0.60;;;;;;;;;;5130513;27;20082;-72
2023/12/31 13:29:47;;;;;;;2.35;0.88;;;;;;;;;;5137683;27;20057;-75
2023/12/31 13:32:14;;;;;;;4.55;1.00;;;;;;;;;;5131459;27;20103;-71
2023/12/31 13:34:43;;;;;;;2.53;0.80;;;;;;;;;;5132149;27;20051;-71
2023/12/31 13:37:14;;;;;;;3.47;0.80;;;;;;;;;;5131586;27;20134;-71
2023/12/31 13:39:40;;;;;;;3.45;0.65;;;;;;;;;;5134141;28;20571;-72
2023/12/31 13:42:08;;;;;;;3.60;0.77;;;;;;;;;;5139697;28;20039;-73
2023/12/31 13:44:36;;;;;;;2.47;0.60;;;;;;;;;;5132747;28;20518;-75
2023/12/31 13:47:03;;;;;;;1.38;0.60;;;;;;;;;;5132472;28;20055;-72
2023/12/31 13:49:30;;;;;;;2.65;0.60;;;;;;;;;;5132322;28;20049;-76
2023/12/31 13:51:57;;;;;;;2.53;1.00;;;;;;;;;;5116134;28;20121;-72
2023/12/31 13:54:24;;;;;;;3.85;0.82;;;;;;;;;;5131951;28;20092;-70
2023/12/31 13:56:51;;;;;;;2.35;1.05;;;;;;;;;;5130530;28;20053;-70
2023/12/31 13:59:18;;;;;;;4.45;1.02;;;;;;;;;;5129940;28;20414;-71
2023/12/31 14:01:45;;;;;;;2.28;0.73;;;;;;;;;;5130787;28;20050;-70
2023/12/31 14:04:15;;;;;;;4.25;0.80;;;;;;;;;;5133052;28;20051;-71
2023/12/31 14:06:44;;;;;;;4.55;1.38;;;;;;;;;;5130433;28;20053;-69
2023/12/31 14:09:11;;;;;;;1.42;0.70;;;;;;;;;;5129919;28;20110;-69
2023/12/31 14:11:38;;;;;;;2.22;1.50;;;;;;;;;;5130535;27;20047;-68
2023/12/31 14:14:05;;;;;;;2.80;0.60;;;;;;;;;;5129925;28;20126;-69
2023/12/31 14:16:32;;;;;;;4.70;0.70;;;;;;;;;;5131660;28;20069;-72
2023/12/31 14:18:59;;;;;;;3.15;0.70;;;;;;;;;;5131550;28;20452;-72
2023/12/31 14:21:26;;;;;;;2.67;0.40;;;;;;;;;;5130028;27;20040;-78
2023/12/31 14:23:52;;;;;;;3.78;0.80;;;;;;;;;;5130196;27;20050;-74
2023/12/31 14:26:19;;;;;;;3.90;0.70;;;;;;;;;;5132137;28;20051;-70
2023/12/31 14:28:46;;;;;;;4.80;0.73;;;;;;;;;;5129837;27;20047;-72
2023/12/31 14:31:13;;;;;;;5.22;0.82;;;;;;;;;;5129733;28;20090;-72
2023/12/31 14:33:39;;;;;;;2.65;0.90;;;;;;;;;;5135107;28;20039;-70
2023/12/31 14:36:06;;;;;;;1.83;0.55;;;;;;;;;;5138453;27;20043;-70
2023/12/31 14:38:35;;;;;;;4.82;0.85;;;;;;;;;;5135852;27;20119;-70